createdAt,value
2018-07-13T00:02:10.811Z,59.00
2018-07-13T00:04:39.339Z,59.00
2018-07-13T00:07:07.801Z,60.20
2018-07-13T00:09:36.268Z,60.70
2018-07-13T00:12:04.734Z,61.30
2018-07-13T00:14:33.213Z,61.40
2018-07-13T00:17:01.669Z,61.60
2018-07-13T00:19:30.104Z,60.80
2018-07-13T00:21:58.548Z,61.00
2018-07-13T00:24:27.092Z,61.20
2018-07-13T00:26:55.613Z,60.90
2018-07-13T00:29:24.045Z,60.50
2018-07-13T00:31:52.540Z,60.40
2018-07-13T00:34:21.016Z,60.00
2018-07-13T00:36:50.081Z,57.70
2018-07-13T00:39:19.182Z,58.90
2018-07-13T00:41:47.677Z,61.00
2018-07-13T00:44:16.136Z,61.80
2018-07-13T00:46:44.647Z,61.40
2018-07-13T00:49:13.176Z,60.80
2018-07-13T00:51:41.723Z,60.40
2018-07-13T00:54:10.216Z,60.20
2018-07-13T00:56:39.250Z,60.90
2018-07-13T00:59:07.726Z,61.60
2018-07-13T01:01:36.228Z,61.70
2018-07-13T01:04:04.877Z,62.20
2018-07-13T01:06:33.354Z,62.60
2018-07-13T01:09:01.860Z,62.50
2018-07-13T01:11:30.428Z,62.00
2018-07-13T01:13:58.868Z,61.90
2018-07-13T01:16:27.315Z,62.20
2018-07-13T01:18:55.884Z,62.60
2018-07-13T01:21:24.309Z,63.40
2018-07-13T01:23:52.754Z,63.80
2018-07-13T01:26:21.213Z,63.50
2018-07-13T01:28:49.740Z,63.40
2018-07-13T01:31:18.228Z,62.50
2018-07-13T01:33:46.661Z,61.30
2018-07-13T01:36:15.637Z,61.00
2018-07-13T01:38:44.124Z,61.50
2018-07-13T01:41:12.579Z,62.10
2018-07-13T01:43:40.969Z,63.20
2018-07-13T01:46:09.591Z,62.80
2018-07-13T01:48:38.073Z,61.60
2018-07-13T01:51:06.553Z,61.80
2018-07-13T01:56:03.423Z,62.60
2018-07-13T02:01:00.094Z,62.90
2018-07-13T02:03:28.524Z,62.30
2018-07-13T02:05:57.011Z,63.00
2018-07-13T02:08:25.493Z,63.00
2018-07-13T02:10:53.964Z,63.30
2018-07-13T02:13:22.585Z,63.40
2018-07-13T02:15:51.024Z,63.10
2018-07-13T02:18:19.460Z,63.50
2018-07-13T02:20:47.982Z,63.50
2018-07-13T02:23:16.475Z,62.90
2018-07-13T02:25:44.892Z,62.70
2018-07-13T02:30:41.665Z,63.10
2018-07-13T02:33:10.097Z,63.40
2018-07-13T02:35:38.557Z,63.80
2018-07-13T02:38:07.023Z,63.50
2018-07-13T02:40:36.213Z,62.90
2018-07-13T02:43:04.665Z,63.00
2018-07-13T02:45:33.190Z,62.80
2018-07-13T02:48:01.648Z,63.00
2018-07-13T02:50:30.096Z,62.90
2018-07-13T02:52:58.525Z,63.30
2018-07-13T02:55:27.132Z,63.50
2018-07-13T02:57:55.556Z,63.20
2018-07-13T03:00:24.100Z,63.00
2018-07-13T03:02:52.546Z,63.10
2018-07-13T03:05:21.001Z,63.70
2018-07-13T03:07:49.486Z,64.20
2018-07-13T03:12:46.089Z,64.30
2018-07-13T03:15:14.517Z,64.00
2018-07-13T03:17:42.982Z,63.80
2018-07-13T03:20:11.930Z,63.60
2018-07-13T03:22:40.381Z,63.70
2018-07-13T03:25:08.837Z,64.50
2018-07-13T03:27:37.268Z,64.30
2018-07-13T03:30:05.845Z,63.20
2018-07-13T03:32:34.277Z,62.50
2018-07-13T03:35:02.754Z,62.90
2018-07-13T03:37:31.348Z,63.20
2018-07-13T03:39:59.802Z,64.10
2018-07-13T03:42:28.320Z,64.30
2018-07-13T03:44:56.873Z,63.70
2018-07-13T03:47:25.516Z,63.80
2018-07-13T03:49:54.000Z,63.70
2018-07-13T03:52:22.464Z,64.20
2018-07-13T03:54:50.957Z,65.00
2018-07-13T03:57:19.489Z,64.60
2018-07-13T03:59:47.993Z,64.20
2018-07-13T04:02:16.648Z,64.20
2018-07-13T04:04:45.203Z,64.30
2018-07-13T04:07:13.758Z,64.90
2018-07-13T04:09:42.236Z,65.20
2018-07-13T04:12:10.683Z,65.40
2018-07-13T04:14:39.188Z,65.50
2018-07-13T04:17:08.608Z,65.10
2018-07-13T04:19:37.064Z,64.90
2018-07-13T04:22:06.042Z,65.30
2018-07-13T04:24:34.553Z,65.70
2018-07-13T04:27:03.848Z,66.10
2018-07-13T04:29:33.025Z,65.80
2018-07-13T04:32:01.695Z,66.10
2018-07-13T04:34:30.298Z,66.50
2018-07-13T04:36:58.956Z,66.80
2018-07-13T04:39:27.534Z,67.00
2018-07-13T04:41:55.973Z,67.10
2018-07-13T04:44:24.465Z,66.80
2018-07-13T04:46:52.970Z,66.60
2018-07-13T04:49:21.572Z,66.80
2018-07-13T04:51:50.074Z,67.00
2018-07-13T04:54:18.709Z,66.70
2018-07-13T04:56:47.358Z,66.20
2018-07-13T04:59:15.970Z,66.60
2018-07-13T05:01:44.576Z,67.50
2018-07-13T05:04:13.183Z,67.80
2018-07-13T05:06:41.863Z,67.30
2018-07-13T05:09:10.621Z,67.40
2018-07-13T05:11:39.209Z,67.30
2018-07-13T05:14:07.748Z,66.50
2018-07-13T05:16:36.819Z,66.60
2018-07-13T05:21:34.412Z,67.30
2018-07-13T05:26:31.328Z,67.10
2018-07-13T05:29:00.273Z,66.90
2018-07-13T05:31:28.970Z,67.20
2018-07-13T05:33:57.481Z,66.90
2018-07-13T05:36:26.054Z,66.90
2018-07-13T05:38:54.707Z,66.10
2018-07-13T05:41:23.932Z,65.20
2018-07-13T05:43:52.703Z,65.20
2018-07-13T05:46:21.351Z,65.50
2018-07-13T05:48:49.920Z,65.50
2018-07-13T05:51:18.569Z,66.00
2018-07-13T05:53:47.158Z,66.70
2018-07-13T05:56:15.718Z,66.40
2018-07-13T05:58:44.284Z,67.20
2018-07-13T06:01:12.901Z,66.40
2018-07-13T06:03:41.604Z,66.50
2018-07-13T06:06:10.192Z,66.10
2018-07-13T06:08:38.866Z,65.80
2018-07-13T06:11:07.544Z,65.70
2018-07-13T06:13:36.002Z,64.40
2018-07-13T06:18:33.405Z,62.10
2018-07-13T06:21:01.869Z,62.20
2018-07-13T06:23:31.229Z,60.00
2018-07-13T06:25:59.720Z,57.00
2018-07-13T06:30:56.449Z,52.50
2018-07-13T06:33:25.049Z,50.60
2018-07-13T06:35:53.717Z,49.50
2018-07-13T06:38:22.279Z,50.20
2018-07-13T06:40:51.492Z,51.10
2018-07-13T06:43:20.045Z,50.40
2018-07-13T06:45:48.502Z,46.50
2018-07-13T06:48:17.110Z,45.30
2018-07-13T06:50:46.228Z,44.70
2018-07-13T06:53:15.470Z,45.00
2018-07-13T06:55:44.280Z,45.00
2018-07-13T07:00:57.622Z,44.90
2018-07-13T07:03:27.348Z,44.60
2018-07-13T07:06:02.997Z,44.40
2018-07-13T07:08:31.715Z,43.90
2018-07-13T07:11:00.575Z,45.00
2018-07-13T07:13:35.429Z,44.70
2018-07-13T07:16:04.078Z,44.50
2018-07-13T07:18:32.658Z,45.70
2018-07-13T07:21:02.027Z,45.80
2018-07-13T07:23:31.241Z,46.00
2018-07-13T07:26:01.081Z,45.90
2018-07-13T07:28:29.711Z,45.50
2018-07-13T07:30:59.169Z,45.00
2018-07-13T07:33:28.307Z,42.90
2018-07-13T07:35:56.738Z,44.60
2018-07-13T07:38:25.602Z,45.70
2018-07-13T07:40:54.193Z,46.20
2018-07-13T07:43:22.640Z,45.10
2018-07-13T07:45:51.079Z,44.50
2018-07-13T07:48:19.661Z,42.00
2018-07-13T07:50:48.092Z,43.80
2018-07-13T07:53:16.672Z,44.40
2018-07-13T07:55:45.242Z,43.60
2018-07-13T07:58:14.318Z,46.10
2018-07-13T08:00:42.830Z,45.90
2018-07-13T08:03:11.348Z,46.30
2018-07-13T08:05:39.817Z,44.30
2018-07-13T08:08:08.349Z,43.50
2018-07-13T08:10:36.890Z,43.70
2018-07-13T08:13:05.446Z,43.40
2018-07-13T08:15:33.944Z,43.90
2018-07-13T08:18:03.126Z,43.40
2018-07-13T08:20:35.195Z,43.20
2018-07-13T08:23:08.285Z,42.80
2018-07-13T08:25:38.529Z,44.90
2018-07-13T08:28:08.236Z,44.40
2018-07-13T08:30:38.913Z,44.90
2018-07-13T08:33:07.404Z,45.10
2018-07-13T08:35:35.970Z,43.90
2018-07-13T08:38:05.452Z,45.20
2018-07-13T08:40:34.113Z,45.50
2018-07-13T08:43:02.642Z,44.90
2018-07-13T08:45:31.237Z,44.80
2018-07-13T08:47:59.752Z,46.40
2018-07-13T08:50:28.580Z,46.10
2018-07-13T08:52:57.921Z,44.60
2018-07-13T08:55:26.762Z,43.60
2018-07-13T08:57:55.658Z,44.30
2018-07-13T09:00:24.261Z,44.50
2018-07-13T09:02:52.701Z,46.50
2018-07-13T09:05:21.116Z,44.30
2018-07-13T09:07:49.770Z,44.80
2018-07-13T09:10:18.296Z,44.90
2018-07-13T09:12:47.269Z,46.90
2018-07-13T09:15:16.417Z,45.90
2018-07-13T09:17:44.969Z,45.80
2018-07-13T09:20:13.973Z,45.50
2018-07-13T09:22:42.545Z,44.10
2018-07-13T09:25:11.905Z,45.20
2018-07-13T09:27:41.054Z,46.00
2018-07-13T09:30:10.782Z,46.30
2018-07-13T09:32:39.467Z,45.00
2018-07-13T09:35:08.266Z,45.20
2018-07-13T09:37:36.906Z,44.60
2018-07-13T09:40:06.158Z,43.90
2018-07-13T09:42:35.190Z,46.80
2018-07-13T09:45:03.809Z,45.20
2018-07-13T09:47:34.001Z,45.20
2018-07-13T09:50:02.541Z,43.80
2018-07-13T09:52:31.055Z,42.60
2018-07-13T09:54:59.743Z,44.70
2018-07-13T09:57:28.868Z,44.20
2018-07-13T09:59:57.356Z,44.80
2018-07-13T10:02:25.945Z,45.70
2018-07-13T10:04:54.568Z,45.10
2018-07-13T10:07:24.301Z,45.50
2018-07-13T10:09:52.851Z,43.70
2018-07-13T10:12:22.414Z,45.80
2018-07-13T10:14:51.012Z,45.90
2018-07-13T10:17:19.569Z,44.50
2018-07-13T10:19:48.208Z,43.90
2018-07-13T10:22:19.920Z,43.30
2018-07-13T10:24:50.010Z,43.50
2018-07-13T10:27:18.665Z,43.20
2018-07-13T10:32:17.063Z,44.10
2018-07-13T10:39:42.145Z,44.20
2018-07-13T10:42:11.081Z,44.90
2018-07-13T10:44:40.173Z,45.70
2018-07-13T10:47:10.180Z,45.70
2018-07-13T10:49:38.626Z,45.50
2018-07-13T10:52:07.247Z,45.00
2018-07-13T10:54:35.764Z,44.80
2018-07-13T10:57:04.367Z,45.20
2018-07-13T10:59:32.985Z,46.10
2018-07-13T11:02:01.547Z,45.70
2018-07-13T11:04:30.796Z,44.00
2018-07-13T11:06:59.268Z,45.90
2018-07-13T11:09:27.839Z,46.00
2018-07-13T11:11:56.449Z,45.20
2018-07-13T11:16:53.248Z,46.40
2018-07-13T11:19:21.897Z,44.80
2018-07-13T11:21:50.397Z,44.90
2018-07-13T11:24:18.918Z,43.60
2018-07-13T11:26:47.366Z,44.50
2018-07-13T11:29:15.898Z,42.20
2018-07-13T11:31:44.409Z,42.70
2018-07-13T11:36:41.231Z,43.20
2018-07-13T11:39:10.410Z,41.10
2018-07-13T11:41:38.905Z,41.30
2018-07-13T11:44:07.616Z,42.20
2018-07-13T11:46:36.814Z,41.80
2018-07-13T11:49:05.458Z,42.50
2018-07-13T11:51:34.085Z,42.30
2018-07-13T11:54:02.585Z,42.20
2018-07-13T11:56:31.134Z,42.50
2018-07-13T11:58:59.676Z,43.10
2018-07-13T12:01:28.273Z,43.80
2018-07-13T12:03:56.781Z,42.30
2018-07-13T12:06:25.341Z,43.80
2018-07-13T12:08:53.945Z,43.50
2018-07-13T12:11:22.550Z,44.50
2018-07-13T12:13:51.096Z,45.00
2018-07-13T12:16:20.186Z,42.90
2018-07-13T12:18:49.269Z,43.80
2018-07-13T12:21:17.791Z,43.50
2018-07-13T12:23:46.302Z,42.70
2018-07-13T12:26:14.845Z,43.80
2018-07-13T12:28:43.296Z,44.10
2018-07-13T12:33:40.905Z,43.30
2018-07-13T12:36:09.503Z,42.70
2018-07-13T12:38:40.243Z,43.30
2018-07-13T12:41:11.691Z,42.90
2018-07-13T12:43:42.158Z,43.30
2018-07-13T12:46:10.856Z,43.00
2018-07-13T12:48:39.539Z,42.50
2018-07-13T12:51:08.185Z,41.80
2018-07-13T12:53:36.802Z,43.10
2018-07-13T12:56:05.435Z,43.70
2018-07-13T12:58:34.237Z,42.20
2018-07-13T13:01:02.754Z,42.60
2018-07-13T13:03:31.343Z,44.10
2018-07-13T13:06:00.043Z,43.00
2018-07-13T13:10:56.777Z,44.20
2018-07-13T13:13:25.346Z,43.40
2018-07-13T13:15:54.629Z,44.10
2018-07-13T13:18:23.110Z,42.50
2018-07-13T13:20:51.654Z,43.40
2018-07-13T13:25:48.567Z,43.70
2018-07-13T13:28:17.177Z,44.20
2018-07-13T13:30:45.758Z,43.70
2018-07-13T13:33:14.665Z,45.70
2018-07-13T13:40:39.574Z,44.10
2018-07-13T13:43:08.195Z,42.70
2018-07-13T13:48:05.552Z,42.10
2018-07-13T13:50:34.051Z,43.50
2018-07-13T13:53:02.978Z,44.20
2018-07-13T13:55:31.591Z,44.00
2018-07-13T13:58:00.770Z,45.30
2018-07-13T14:00:29.368Z,45.80
2018-07-13T14:02:57.834Z,44.10
2018-07-13T14:05:26.645Z,45.00
2018-07-13T14:07:54.927Z,45.10
2018-07-13T14:10:23.624Z,44.80
2018-07-13T14:12:52.091Z,44.20
2018-07-13T14:15:20.793Z,42.90
2018-07-13T14:20:18.002Z,43.80
2018-07-13T14:22:46.698Z,41.20
2018-07-13T14:25:16.035Z,42.30
2018-07-13T14:27:44.713Z,42.40
2018-07-13T14:30:13.385Z,43.50
2018-07-13T14:32:42.021Z,43.40
2018-07-13T14:37:38.650Z,43.20
2018-07-13T14:40:08.385Z,44.00
2018-07-13T14:42:36.825Z,44.30
2018-07-13T14:45:05.670Z,44.80
2018-07-13T14:47:34.329Z,43.30
2018-07-13T14:50:03.571Z,43.40
2018-07-13T14:52:32.186Z,43.70
2018-07-13T14:55:00.754Z,43.70
2018-07-13T14:57:29.383Z,43.90
2018-07-13T14:59:57.990Z,44.90
2018-07-13T15:07:22.892Z,43.80
2018-07-13T15:09:51.583Z,43.90
2018-07-13T15:12:20.218Z,43.60
2018-07-13T15:14:48.688Z,43.80
2018-07-13T15:17:17.299Z,43.00
2018-07-13T15:19:45.800Z,43.00
2018-07-13T15:22:14.330Z,43.00
2018-07-13T15:27:11.065Z,42.00
2018-07-13T15:29:39.853Z,41.60
2018-07-13T15:32:09.661Z,42.00
2018-07-13T15:34:38.252Z,41.00
2018-07-13T15:37:06.804Z,41.10
2018-07-13T15:39:35.284Z,40.90
2018-07-13T15:42:03.855Z,42.00
2018-07-13T15:44:32.422Z,40.80
2018-07-13T15:47:00.974Z,40.80
2018-07-13T15:49:30.155Z,41.40
2018-07-13T15:51:58.906Z,42.10
2018-07-13T15:54:27.357Z,40.90
2018-07-13T15:56:55.865Z,40.80
2018-07-13T15:59:24.442Z,41.10
2018-07-13T16:01:52.928Z,40.30
2018-07-13T16:04:21.475Z,41.00
2018-07-13T16:06:50.022Z,41.10
2018-07-13T16:09:18.585Z,40.80
2018-07-13T16:11:47.136Z,40.00
2018-07-13T16:14:15.804Z,39.90
2018-07-13T16:16:44.286Z,39.00
2018-07-13T16:19:12.756Z,40.00
2018-07-13T16:21:41.386Z,40.00
2018-07-13T16:24:09.884Z,39.40
2018-07-13T16:26:38.486Z,39.10
2018-07-13T16:29:07.116Z,39.50
2018-07-13T16:34:04.077Z,38.90
2018-07-13T16:36:32.599Z,38.50
2018-07-13T16:39:01.141Z,39.40
2018-07-13T16:41:29.712Z,39.60
2018-07-13T16:43:58.296Z,39.70
2018-07-13T16:46:26.777Z,39.80
2018-07-13T16:48:55.274Z,39.80
2018-07-13T16:53:52.720Z,39.70
2018-07-13T16:56:21.304Z,40.10
2018-07-13T16:58:49.751Z,40.50
2018-07-13T17:01:18.284Z,40.30
2018-07-13T17:03:46.781Z,39.90
2018-07-13T17:06:15.392Z,39.90
2018-07-13T17:08:44.186Z,40.00
2018-07-13T17:11:12.846Z,40.00
2018-07-13T17:13:41.329Z,39.70
2018-07-13T17:16:09.943Z,39.40
2018-07-13T17:18:38.575Z,39.30
2018-07-13T17:21:07.548Z,39.20
2018-07-13T17:23:36.478Z,39.40
2018-07-13T17:26:05.582Z,39.80
2018-07-13T17:28:34.120Z,39.50
2018-07-13T17:31:02.637Z,39.50
2018-07-13T17:35:59.529Z,39.70
2018-07-13T17:38:27.985Z,39.80
2018-07-13T17:40:56.426Z,39.90
2018-07-13T17:43:24.935Z,39.70
2018-07-13T17:45:53.477Z,40.00
2018-07-13T17:48:22.113Z,39.50
2018-07-13T17:50:50.722Z,39.80
2018-07-13T17:53:19.529Z,39.50
2018-07-13T17:55:47.989Z,39.60
2018-07-13T17:58:16.536Z,40.00
2018-07-13T18:00:45.063Z,39.90
2018-07-13T18:03:13.578Z,39.70
2018-07-13T18:05:42.212Z,39.70
2018-07-13T18:08:10.740Z,40.00
2018-07-13T18:10:39.183Z,40.10
2018-07-13T18:15:36.709Z,41.10
2018-07-13T18:18:05.934Z,41.40
2018-07-13T18:20:35.054Z,42.10
2018-07-13T18:23:03.643Z,42.80
2018-07-13T18:25:32.126Z,43.50
2018-07-13T18:28:00.606Z,44.40
2018-07-13T18:30:29.333Z,44.30
2018-07-13T18:32:57.846Z,44.60
2018-07-13T18:35:26.342Z,44.90
2018-07-13T18:37:54.812Z,44.60
2018-07-13T18:40:23.417Z,44.90
2018-07-13T18:42:51.957Z,45.20
2018-07-13T18:45:21.002Z,45.50
2018-07-13T18:47:50.045Z,45.00
2018-07-13T18:50:18.531Z,44.90
2018-07-13T18:52:47.008Z,44.60
2018-07-13T18:55:15.540Z,44.70
2018-07-13T18:57:44.074Z,44.80
2018-07-13T19:00:12.598Z,44.30
2018-07-13T19:02:41.154Z,44.20
2018-07-13T19:05:09.704Z,43.90
2018-07-13T19:07:38.312Z,44.40
2018-07-13T19:10:06.853Z,44.60
2018-07-13T19:12:35.783Z,45.40
2018-07-13T19:15:05.025Z,45.10
2018-07-13T19:17:33.495Z,44.90
2018-07-13T19:20:02.451Z,45.20
2018-07-13T19:22:30.977Z,44.90
2018-07-13T19:25:00.513Z,45.30
2018-07-13T19:27:29.052Z,45.60
2018-07-13T19:29:57.530Z,45.00
2018-07-13T19:32:26.041Z,45.00
2018-07-13T19:34:54.516Z,44.50
2018-07-13T19:37:23.590Z,44.60
2018-07-13T19:39:52.078Z,44.50
2018-07-13T19:42:20.597Z,44.60
2018-07-13T19:44:49.020Z,44.80
2018-07-13T19:47:18.201Z,44.90
2018-07-13T19:49:46.837Z,44.70
2018-07-13T19:52:15.313Z,44.70
2018-07-13T19:54:43.957Z,44.90
2018-07-13T19:57:12.493Z,44.80
2018-07-13T19:59:41.031Z,44.60
2018-07-13T20:02:10.049Z,44.80
2018-07-13T20:04:38.881Z,44.60
2018-07-13T20:07:07.766Z,44.30
2018-07-13T20:14:33.387Z,44.90
2018-07-13T20:17:01.967Z,44.80
2018-07-13T20:19:30.579Z,44.50
2018-07-13T20:21:59.161Z,45.00
2018-07-13T20:24:27.634Z,44.40
2018-07-13T20:26:56.246Z,44.90
2018-07-13T20:29:24.724Z,45.00
2018-07-13T20:31:53.223Z,44.80
2018-07-13T20:34:21.755Z,44.80
2018-07-13T20:36:50.344Z,44.70
2018-07-13T20:39:18.899Z,45.10
2018-07-13T20:41:47.360Z,44.50
2018-07-13T20:44:15.807Z,44.60
2018-07-13T20:46:44.278Z,44.40
2018-07-13T20:49:12.913Z,44.80
2018-07-13T20:51:41.533Z,45.20
2018-07-13T20:54:10.044Z,45.00
2018-07-13T20:56:38.453Z,44.60
2018-07-13T20:59:06.988Z,44.50
2018-07-13T21:01:35.534Z,44.80
2018-07-13T21:04:04.037Z,44.60
2018-07-13T21:06:32.692Z,44.70
2018-07-13T21:09:01.142Z,44.70
2018-07-13T21:11:29.729Z,44.80
2018-07-13T21:13:58.216Z,45.70
2018-07-13T21:18:54.925Z,46.50
2018-07-13T21:21:23.496Z,47.80
2018-07-13T21:23:52.188Z,48.70
2018-07-13T21:26:20.832Z,48.50
2018-07-13T21:28:49.329Z,47.00
2018-07-13T21:31:17.964Z,46.40
2018-07-13T21:33:46.433Z,46.70
2018-07-13T21:36:15.001Z,45.70
2018-07-13T21:38:43.570Z,46.10
2018-07-13T21:41:12.661Z,46.50
2018-07-13T21:43:41.152Z,45.50
2018-07-13T21:46:09.623Z,46.70
2018-07-13T21:48:38.093Z,47.30
2018-07-13T21:51:06.617Z,48.80
2018-07-13T21:53:35.129Z,48.10
2018-07-13T21:56:03.596Z,48.00
2018-07-13T21:58:32.115Z,49.70
2018-07-13T22:01:00.611Z,50.10
2018-07-13T22:03:29.074Z,50.50
2018-07-13T22:05:57.723Z,49.00
2018-07-13T22:08:26.317Z,47.90
2018-07-13T22:10:55.457Z,47.70
2018-07-13T22:13:24.023Z,48.80
2018-07-13T22:15:52.493Z,50.00
2018-07-13T22:18:21.062Z,50.40
2018-07-13T22:20:49.558Z,51.30
2018-07-13T22:23:17.992Z,50.00
2018-07-13T22:25:46.455Z,49.10
2018-07-13T22:28:14.921Z,48.90
2018-07-13T22:30:43.457Z,49.70
2018-07-13T22:33:11.934Z,48.90
2018-07-13T22:35:40.972Z,49.00
2018-07-13T22:38:09.457Z,49.60
2018-07-13T22:40:37.912Z,49.80
2018-07-13T22:43:06.393Z,51.30
2018-07-13T22:45:34.872Z,51.60
2018-07-13T22:48:03.373Z,51.90
2018-07-13T22:50:31.814Z,53.10
2018-07-13T22:53:00.261Z,54.30
2018-07-13T22:55:28.874Z,55.10
2018-07-13T22:57:57.393Z,54.00
2018-07-13T23:00:25.877Z,51.80
2018-07-13T23:02:54.404Z,51.90
2018-07-13T23:05:22.843Z,51.80
2018-07-13T23:10:19.483Z,51.70
2018-07-13T23:12:48.128Z,52.60
2018-07-13T23:15:16.568Z,53.70
2018-07-13T23:17:45.033Z,54.60
2018-07-13T23:20:13.461Z,55.10
2018-07-13T23:22:41.973Z,55.40
2018-07-13T23:25:10.452Z,54.90
2018-07-13T23:27:38.926Z,55.40
2018-07-13T23:30:08.137Z,57.80
2018-07-13T23:32:36.616Z,55.60
2018-07-13T23:35:05.120Z,54.60
2018-07-13T23:37:33.585Z,53.50
2018-07-13T23:40:02.050Z,53.10
2018-07-13T23:42:30.463Z,55.40
2018-07-13T23:44:59.114Z,59.00
2018-07-13T23:47:27.684Z,58.00
2018-07-13T23:49:56.148Z,56.60
2018-07-13T23:52:24.590Z,57.80
2018-07-13T23:54:53.063Z,58.20
2018-07-13T23:57:21.530Z,58.50
2018-07-13T23:59:50.005Z,59.80
